createdAt,value
2023-12-12T00:01:25.633Z,22.00
2023-12-12T00:06:31.764Z,25.50
2023-12-12T00:11:34.822Z,24.50
2023-12-12T00:16:37.942Z,26.00
2023-12-12T00:21:41.085Z,23.00
2023-12-12T00:26:44.132Z,21.50
2023-12-12T00:31:47.119Z,25.25
2023-12-12T00:36:50.206Z,25.33
2023-12-12T00:41:54.075Z,22.00
2023-12-12T00:46:57.096Z,23.25
2023-12-12T00:52:00.274Z,19.25
2023-12-12T00:57:03.762Z,22.67
2023-12-12T01:02:06.748Z,25.00
2023-12-12T01:07:09.818Z,22.50
2023-12-12T01:12:12.875Z,20.00
2023-12-12T01:17:15.965Z,24.50
2023-12-12T01:22:19.283Z,24.00
2023-12-12T01:27:22.337Z,20.25
2023-12-12T01:32:25.752Z,25.50
2023-12-12T01:37:29.029Z,22.67
2023-12-12T01:42:32.371Z,20.00
2023-12-12T01:47:35.826Z,21.67
2023-12-12T01:52:39.307Z,24.25
2023-12-12T01:57:42.626Z,25.50
2023-12-12T02:02:45.741Z,24.00
2023-12-12T02:07:50.457Z,23.00
2023-12-12T02:12:54.790Z,24.25
2023-12-12T02:17:57.991Z,24.25
2023-12-12T02:23:01.046Z,23.33
2023-12-12T02:28:04.524Z,24.25
2023-12-12T02:33:07.580Z,23.00
2023-12-12T02:38:10.874Z,22.33
2023-12-12T02:43:13.984Z,23.67
2023-12-12T02:48:17.705Z,22.00
2023-12-12T02:53:20.788Z,25.25
2023-12-12T02:58:24.035Z,26.00
2023-12-12T03:03:27.055Z,24.50
2023-12-12T03:08:30.202Z,20.25
2023-12-12T03:13:36.538Z,26.75
2023-12-12T03:18:39.571Z,25.75
2023-12-12T03:23:42.624Z,22.00
2023-12-12T03:28:45.611Z,25.50
2023-12-12T03:33:48.671Z,22.67
2023-12-12T03:38:51.813Z,23.33
2023-12-12T03:43:54.915Z,22.00
2023-12-12T03:48:57.992Z,22.00
2023-12-12T03:54:01.041Z,20.00
2023-12-12T03:59:04.098Z,21.67
2023-12-12T04:04:07.339Z,21.50
2023-12-12T04:09:10.392Z,22.75
2023-12-12T04:14:13.520Z,23.50
2023-12-12T04:19:16.561Z,20.50
2023-12-12T04:24:19.744Z,23.00
2023-12-12T04:29:22.693Z,22.33
2023-12-12T04:34:25.828Z,21.67
2023-12-12T04:39:29.195Z,25.67
2023-12-12T04:44:32.186Z,28.75
2023-12-12T04:49:35.755Z,24.75
2023-12-12T04:54:38.849Z,28.75
2023-12-12T04:59:41.894Z,25.75
2023-12-12T05:04:44.981Z,25.00
2023-12-12T05:09:47.965Z,27.00
2023-12-12T05:14:50.945Z,29.33
2023-12-12T05:19:54.020Z,33.00
2023-12-12T05:24:58.326Z,30.33
2023-12-12T05:30:01.277Z,29.50
2023-12-12T05:35:04.667Z,36.33
2023-12-12T05:40:08.401Z,34.25
2023-12-12T05:45:11.605Z,34.00
2023-12-12T05:50:14.743Z,36.50
2023-12-12T05:55:18.222Z,35.00
2023-12-12T06:00:21.573Z,44.50
2023-12-12T06:05:24.797Z,33.25
2023-12-12T06:10:29.071Z,34.75
2023-12-12T06:15:32.087Z,39.50
2023-12-12T06:20:36.645Z,40.67
2023-12-12T06:25:39.918Z,37.75
2023-12-12T06:30:43.427Z,38.50
2023-12-12T06:35:47.081Z,48.25
2023-12-12T06:40:50.219Z,40.50
2023-12-12T06:45:53.882Z,47.50
2023-12-12T06:50:57.136Z,41.75
2023-12-12T06:56:00.771Z,44.75
2023-12-12T07:01:05.620Z,34.75
2023-12-12T07:06:11.454Z,36.00
2023-12-12T07:11:17.217Z,35.00
2023-12-12T07:16:22.395Z,28.75
2023-12-12T07:21:25.610Z,31.25
2023-12-12T07:26:28.656Z,23.50
2023-12-12T07:31:31.768Z,26.75
2023-12-12T07:36:36.056Z,36.00
2023-12-12T07:41:39.162Z,34.00
2023-12-12T07:46:42.607Z,32.25
2023-12-12T07:51:46.040Z,32.25
2023-12-12T07:56:49.111Z,40.33
2023-12-12T08:01:52.692Z,40.50
2023-12-12T08:06:56.282Z,31.50
2023-12-12T08:11:59.372Z,35.75
2023-12-12T08:17:02.475Z,34.25
2023-12-12T08:22:05.686Z,35.00
2023-12-12T08:27:08.863Z,32.50
2023-12-12T08:32:12.478Z,37.00
2023-12-12T08:37:17.737Z,39.25
2023-12-12T08:42:22.020Z,39.50
2023-12-12T08:47:28.200Z,34.50
2023-12-12T08:52:38.056Z,38.00
2023-12-12T08:57:41.529Z,32.00
2023-12-12T09:02:44.771Z,31.33
2023-12-12T09:07:47.918Z,34.00
2023-12-12T09:12:51.067Z,34.75
2023-12-12T09:18:10.274Z,38.75
2023-12-12T09:23:18.099Z,36.50
2023-12-12T09:28:21.280Z,32.75
2023-12-12T09:33:24.479Z,36.00
2023-12-12T09:38:28.258Z,45.33
2023-12-12T09:43:33.136Z,40.50
2023-12-12T09:48:37.225Z,36.00
2023-12-12T09:53:47.659Z,36.25
2023-12-12T09:58:50.917Z,32.50
2023-12-12T10:03:55.505Z,36.67
2023-12-12T10:08:59.336Z,36.00
2023-12-12T10:14:02.463Z,34.50
2023-12-12T10:19:05.802Z,35.75
2023-12-12T10:24:09.071Z,36.25
2023-12-12T10:29:12.181Z,43.67
2023-12-12T10:34:15.447Z,38.00
2023-12-12T10:39:18.616Z,34.50
2023-12-12T10:44:23.024Z,40.50
2023-12-12T10:49:30.318Z,32.50
2023-12-12T10:54:36.979Z,34.25
2023-12-12T10:59:58.792Z,36.50
2023-12-12T11:05:05.274Z,33.00
2023-12-12T11:10:09.918Z,29.75
2023-12-12T11:15:14.581Z,28.25
2023-12-12T11:20:19.243Z,30.00
2023-12-12T11:25:23.970Z,32.00
2023-12-12T11:30:46.739Z,30.75
2023-12-12T11:35:50.509Z,27.50
2023-12-12T11:41:15.704Z,28.00
2023-12-12T11:46:22.706Z,27.75
2023-12-12T11:51:34.831Z,34.25
2023-12-12T11:56:38.163Z,22.50
2023-12-12T12:01:41.325Z,27.75
2023-12-12T12:06:45.033Z,28.75
2023-12-12T12:11:49.893Z,27.50
2023-12-12T12:16:54.429Z,24.25
2023-12-12T12:22:09.412Z,25.00
2023-12-12T12:27:13.008Z,26.50
2023-12-12T12:32:17.817Z,32.50
2023-12-12T12:37:33.710Z,23.75
2023-12-12T12:42:39.074Z,25.00
2023-12-12T12:47:42.190Z,22.50
2023-12-12T12:52:46.191Z,24.50
2023-12-12T12:57:49.263Z,20.50
2023-12-12T13:02:52.342Z,25.67
2023-12-12T13:07:55.480Z,29.00
2023-12-12T13:12:58.522Z,33.00
2023-12-12T13:18:01.631Z,39.33
2023-12-12T13:23:04.703Z,47.50
2023-12-12T13:28:08.438Z,38.00
2023-12-12T13:33:13.052Z,38.00
2023-12-12T13:38:16.394Z,43.33
2023-12-12T13:43:20.152Z,40.33
2023-12-12T13:48:23.254Z,40.67
2023-12-12T13:53:26.417Z,44.50
2023-12-12T13:58:29.498Z,42.25
2023-12-12T14:03:32.639Z,40.33
2023-12-12T14:08:36.440Z,41.50
2023-12-12T14:13:39.471Z,37.25
2023-12-12T14:18:42.676Z,43.25
2023-12-12T14:23:45.737Z,43.33
2023-12-12T14:28:51.252Z,40.75
2023-12-12T14:33:58.020Z,41.25
2023-12-12T14:39:02.119Z,43.00
2023-12-12T14:44:05.376Z,37.75
2023-12-12T14:49:08.535Z,38.50
2023-12-12T14:54:11.577Z,36.25
2023-12-12T14:59:15.293Z,44.50
2023-12-12T15:04:18.503Z,41.50
2023-12-12T15:09:25.147Z,38.00
2023-12-12T15:14:28.443Z,33.25
2023-12-12T15:19:31.593Z,38.00
2023-12-12T15:24:34.699Z,36.50
2023-12-12T15:29:38.824Z,38.00
2023-12-12T15:34:41.871Z,36.33
2023-12-12T15:39:44.932Z,35.75
2023-12-12T15:44:47.954Z,38.25
2023-12-12T15:49:51.066Z,35.00
2023-12-12T15:54:54.224Z,36.33
2023-12-12T15:59:57.285Z,39.50
2023-12-12T16:05:00.544Z,35.50
2023-12-12T16:10:08.084Z,38.67
2023-12-12T16:15:11.985Z,40.50
2023-12-12T16:20:15.295Z,28.33
2023-12-12T16:25:18.529Z,32.00
2023-12-12T16:30:21.818Z,31.00
2023-12-12T16:35:27.745Z,33.25
2023-12-12T16:40:31.734Z,34.00
2023-12-12T16:45:34.761Z,33.75
2023-12-12T16:50:38.109Z,35.67
2023-12-12T16:55:41.384Z,34.75
2023-12-12T17:00:44.486Z,36.00
2023-12-12T17:05:47.571Z,33.75
2023-12-12T17:10:51.307Z,31.75
2023-12-12T17:15:57.785Z,32.33
2023-12-12T17:21:00.736Z,33.50
2023-12-12T17:26:03.773Z,29.75
2023-12-12T17:31:07.411Z,36.67
2023-12-12T17:36:10.597Z,33.50
2023-12-12T17:41:17.304Z,36.25
2023-12-12T17:46:20.455Z,30.67
2023-12-12T17:51:23.530Z,34.25
2023-12-12T17:56:26.541Z,28.50
2023-12-12T18:01:38.954Z,30.00
2023-12-12T18:06:42.113Z,30.25
2023-12-12T18:11:45.330Z,30.25
2023-12-12T18:16:48.385Z,28.25
2023-12-12T18:21:51.436Z,32.50
2023-12-12T18:26:56.180Z,33.00
2023-12-12T18:31:59.824Z,28.50
2023-12-12T18:37:03.823Z,32.00
2023-12-12T18:42:07.340Z,32.75
2023-12-12T18:47:10.334Z,32.00
2023-12-12T18:52:13.800Z,36.50
2023-12-12T18:57:16.848Z,33.25
2023-12-12T19:02:19.978Z,33.00
2023-12-12T19:07:23.174Z,36.75
2023-12-12T19:12:26.133Z,28.75
2023-12-12T19:17:30.160Z,37.50
2023-12-12T19:22:33.807Z,33.25
2023-12-12T19:27:37.053Z,29.25
2023-12-12T19:32:41.903Z,27.75
2023-12-12T19:37:45.153Z,31.75
2023-12-12T19:42:49.211Z,30.00
2023-12-12T19:47:52.542Z,30.75
2023-12-12T19:52:55.616Z,31.25
2023-12-12T19:57:58.708Z,25.50
2023-12-12T20:03:01.675Z,29.75
2023-12-12T20:08:05.160Z,30.25
2023-12-12T20:13:08.325Z,34.00
2023-12-12T20:18:11.389Z,34.00
2023-12-12T20:23:14.677Z,30.50
2023-12-12T20:28:18.404Z,31.00
2023-12-12T20:33:21.495Z,30.25
2023-12-12T20:38:24.570Z,29.67
2023-12-12T20:43:27.689Z,33.67
2023-12-12T20:48:30.795Z,29.00
2023-12-12T20:53:34.023Z,30.50
2023-12-12T20:58:38.107Z,36.25
2023-12-12T21:03:41.217Z,34.50
2023-12-12T21:08:44.229Z,30.67
2023-12-12T21:13:47.773Z,29.25
2023-12-12T21:18:51.318Z,30.00
2023-12-12T21:23:54.453Z,33.00
2023-12-12T21:28:57.466Z,33.25
2023-12-12T21:34:00.599Z,32.33
2023-12-12T21:39:05.666Z,29.25
2023-12-12T21:44:08.870Z,27.75
2023-12-12T21:49:14.435Z,27.75
2023-12-12T21:54:17.673Z,33.25
2023-12-12T21:59:20.700Z,31.25
2023-12-12T22:04:23.795Z,32.75
2023-12-12T22:09:26.822Z,30.00
2023-12-12T22:14:29.762Z,32.75
2023-12-12T22:19:33.753Z,24.00
2023-12-12T22:24:41.034Z,28.75
2023-12-12T22:29:44.003Z,33.33
2023-12-12T22:34:47.077Z,32.00
2023-12-12T22:39:50.156Z,27.33
2023-12-12T22:44:53.238Z,31.50
2023-12-12T22:49:56.284Z,30.33
2023-12-12T22:54:59.417Z,29.00
2023-12-12T23:00:10.339Z,30.50
2023-12-12T23:05:13.380Z,30.00
2023-12-12T23:10:16.631Z,30.25
2023-12-12T23:15:19.768Z,32.25
2023-12-12T23:20:22.933Z,32.00
2023-12-12T23:25:25.977Z,30.25
2023-12-12T23:30:29.085Z,29.67
2023-12-12T23:35:32.521Z,30.00
2023-12-12T23:40:35.640Z,32.50
2023-12-12T23:45:38.862Z,28.25
2023-12-12T23:50:41.960Z,29.25
2023-12-12T23:55:45.068Z,36.00
